createdAt,value
2023-02-19T00:04:31.832Z,1001.86
2023-02-19T00:09:31.784Z,1001.86
2023-02-19T00:14:31.825Z,1001.88
2023-02-19T00:19:31.666Z,1001.74
2023-02-19T00:24:31.693Z,1001.78
2023-02-19T00:29:31.651Z,1001.77
2023-02-19T00:34:31.498Z,1001.70
2023-02-19T00:39:31.437Z,1001.65
2023-02-19T00:44:31.351Z,1001.56
2023-02-19T00:49:31.334Z,1001.60
2023-02-19T00:54:32.335Z,1001.61
2023-02-19T00:59:31.217Z,1001.61
2023-02-19T01:04:31.194Z,1001.58
2023-02-19T01:09:31.287Z,1001.52
2023-02-19T01:14:31.111Z,1001.57
2023-02-19T01:19:31.058Z,1001.46
2023-02-19T01:24:30.914Z,1001.57
2023-02-19T01:29:30.887Z,1001.52
2023-02-19T01:34:30.884Z,1001.48
2023-02-19T01:39:30.882Z,1001.49
2023-02-19T01:44:30.738Z,1001.41
2023-02-19T01:49:30.645Z,1001.33
2023-02-19T01:54:30.679Z,1001.35
2023-02-19T01:59:30.644Z,1001.36
2023-02-19T02:04:30.530Z,1001.36
2023-02-19T02:09:30.411Z,1001.42
2023-02-19T02:14:30.372Z,1001.52
2023-02-19T02:19:30.304Z,1001.38
2023-02-19T02:24:30.288Z,1001.44
2023-02-19T02:29:30.203Z,1001.49
2023-02-19T02:34:30.160Z,1001.60
2023-02-19T02:39:30.163Z,1001.50
2023-02-19T02:44:30.140Z,1001.54
2023-02-19T02:49:30.016Z,1001.35
2023-02-19T02:54:30.025Z,1001.44
2023-02-19T02:59:29.908Z,1001.60
2023-02-19T03:04:29.808Z,1001.60
2023-02-19T03:09:29.810Z,1001.61
2023-02-19T03:14:29.720Z,1001.68
2023-02-19T03:19:29.675Z,1001.74
2023-02-19T03:24:29.616Z,1001.80
2023-02-19T03:29:29.551Z,1001.75
2023-02-19T03:34:29.503Z,1001.81
2023-02-19T03:39:29.471Z,1001.91
2023-02-19T03:44:29.441Z,1001.91
2023-02-19T03:49:29.432Z,1001.98
2023-02-19T03:54:29.370Z,1002.13
2023-02-19T03:59:29.232Z,1002.15
2023-02-19T04:04:29.186Z,1002.23
2023-02-19T04:09:29.122Z,1002.23
2023-02-19T04:14:29.106Z,1002.29
2023-02-19T04:19:29.009Z,1002.41
2023-02-19T04:24:29.017Z,1002.45
2023-02-19T04:29:28.923Z,1002.45
2023-02-19T04:34:28.821Z,1002.54
2023-02-19T04:39:28.886Z,1002.55
2023-02-19T04:44:28.745Z,1002.69
2023-02-19T04:49:28.727Z,1002.77
2023-02-19T04:54:28.711Z,1002.87
2023-02-19T04:59:28.601Z,1002.86
2023-02-19T05:04:28.521Z,1002.90
2023-02-19T05:09:28.475Z,1002.96
2023-02-19T05:14:28.394Z,1003.06
2023-02-19T05:19:28.459Z,1003.08
2023-02-19T05:24:28.267Z,1003.16
2023-02-19T05:29:28.261Z,1003.23
2023-02-19T05:34:28.214Z,1003.35
2023-02-19T05:39:28.143Z,1003.31
2023-02-19T05:44:28.269Z,1003.43
2023-02-19T05:49:27.982Z,1003.38
2023-02-19T05:54:27.956Z,1003.41
2023-02-19T05:59:27.992Z,1003.40
2023-02-19T06:04:27.848Z,1003.52
2023-02-19T06:09:27.985Z,1003.55
2023-02-19T06:14:27.753Z,1003.65
2023-02-19T06:19:27.672Z,1003.77
2023-02-19T06:24:27.674Z,1003.70
2023-02-19T06:29:27.590Z,1003.76
2023-02-19T06:34:27.567Z,1003.80
2023-02-19T06:39:27.451Z,1003.90
2023-02-19T06:44:27.405Z,1003.90
2023-02-19T06:49:27.415Z,1003.99
2023-02-19T06:54:27.301Z,1004.09
2023-02-19T06:59:27.275Z,1004.14
2023-02-19T07:04:27.239Z,1004.27
2023-02-19T07:09:27.147Z,1004.31
2023-02-19T07:14:27.114Z,1004.58
2023-02-19T07:19:27.025Z,1004.59
2023-02-19T07:24:27.054Z,1004.63
2023-02-19T07:29:26.930Z,1004.73
2023-02-19T07:34:26.864Z,1004.73
2023-02-19T07:39:26.858Z,1004.88
2023-02-19T07:44:26.761Z,1004.97
2023-02-19T07:49:26.691Z,1005.10
2023-02-19T07:54:26.643Z,1005.21
2023-02-19T07:59:26.596Z,1005.13
2023-02-19T08:04:26.549Z,1005.28
2023-02-19T08:09:26.501Z,1005.37
2023-02-19T08:14:26.433Z,1005.36
2023-02-19T08:19:26.455Z,1005.58
2023-02-19T08:24:26.282Z,1005.45
2023-02-19T08:29:26.283Z,1005.55
2023-02-19T08:34:26.288Z,1005.48
2023-02-19T08:39:26.157Z,1005.53
2023-02-19T08:44:26.097Z,1005.46
2023-02-19T08:49:26.037Z,1005.53
2023-02-19T08:54:25.968Z,1005.57
2023-02-19T08:59:25.959Z,1005.59
2023-02-19T09:04:25.881Z,1005.67
2023-02-19T09:09:25.894Z,1005.65
2023-02-19T09:14:25.776Z,1005.74
2023-02-19T09:19:25.685Z,1005.84
2023-02-19T09:24:25.660Z,1005.90
2023-02-19T09:29:25.598Z,1005.90
2023-02-19T09:34:25.530Z,1006.02
2023-02-19T09:39:25.466Z,1006.10
2023-02-19T09:44:25.424Z,1006.04
2023-02-19T09:49:26.068Z,1005.99
2023-02-19T09:54:25.314Z,1006.09
2023-02-19T09:59:25.285Z,1006.28
2023-02-19T10:04:25.230Z,1006.40
2023-02-19T10:09:25.151Z,1006.51
2023-02-19T10:14:25.103Z,1006.66
2023-02-19T10:19:25.156Z,1006.77
2023-02-19T10:24:24.959Z,1006.79
2023-02-19T10:29:25.033Z,1006.86
2023-02-19T10:34:24.850Z,1007.12
2023-02-19T10:39:24.849Z,1007.18
2023-02-19T10:44:24.788Z,1007.29
2023-02-19T10:49:24.714Z,1007.13
2023-02-19T10:54:24.640Z,1007.18
2023-02-19T10:59:24.688Z,1007.14
2023-02-19T11:04:24.593Z,1007.29
2023-02-19T11:09:24.577Z,1007.37
2023-02-19T11:14:24.429Z,1007.28
2023-02-19T11:19:24.406Z,1007.21
2023-02-19T11:24:24.357Z,1007.27
2023-02-19T11:29:24.275Z,1007.18
2023-02-19T11:34:24.244Z,1007.13
2023-02-19T11:42:09.195Z,1007.15
